createdAt,value
2023-04-28T00:02:03.622Z,56.00
2023-04-28T00:04:30.984Z,56.00
2023-04-28T00:06:58.051Z,56.10
2023-04-28T00:09:25.056Z,56.10
2023-04-28T00:11:52.019Z,55.90
2023-04-28T00:14:19.135Z,55.90
2023-04-28T00:16:46.543Z,55.90
2023-04-28T00:19:13.639Z,56.00
2023-04-28T00:21:40.578Z,56.30
2023-04-28T00:24:07.624Z,56.30
2023-04-28T00:26:34.647Z,56.30
2023-04-28T00:29:01.586Z,56.30
2023-04-28T00:31:28.593Z,56.30
2023-04-28T00:33:55.693Z,56.40
2023-04-28T00:36:22.859Z,56.60
2023-04-28T00:38:49.774Z,56.70
2023-04-28T00:41:16.724Z,56.90
2023-04-28T00:43:48.297Z,57.10
2023-04-28T00:46:25.232Z,57.20
2023-04-28T00:48:53.241Z,57.50
2023-04-28T00:51:21.275Z,57.90
2023-04-28T00:53:48.540Z,57.90
2023-04-28T00:56:15.804Z,58.50
2023-04-28T00:58:45.771Z,58.80
2023-04-28T01:01:12.730Z,59.10
2023-04-28T01:03:41.514Z,59.10
2023-04-28T01:06:11.170Z,59.30
2023-04-28T01:08:39.579Z,59.50
2023-04-28T01:11:14.429Z,60.00
2023-04-28T01:14:01.668Z,60.90
2023-04-28T01:16:33.055Z,61.40
2023-04-28T01:19:01.482Z,62.00
2023-04-28T01:21:34.341Z,62.70
2023-04-28T01:24:10.191Z,63.40
2023-04-28T01:26:37.129Z,63.80
2023-04-28T01:29:04.055Z,64.00
2023-04-28T01:31:31.367Z,64.70
2023-04-28T01:33:58.841Z,65.50
2023-04-28T01:36:27.432Z,66.20
2023-04-28T01:38:55.145Z,66.20
2023-04-28T01:41:22.791Z,66.40
2023-04-28T01:43:49.805Z,66.80
2023-04-28T01:46:17.003Z,66.90
2023-04-28T01:48:44.066Z,66.60
2023-04-28T01:51:12.761Z,67.10
2023-04-28T01:53:40.058Z,67.30
2023-04-28T01:56:09.462Z,68.00
2023-04-28T01:58:40.871Z,69.70
2023-04-28T02:01:11.545Z,71.30
2023-04-28T02:03:39.196Z,72.70
2023-04-28T02:06:06.360Z,74.10
2023-04-28T02:08:33.349Z,75.20
2023-04-28T02:11:01.692Z,76.10
2023-04-28T02:13:28.706Z,77.30
2023-04-28T02:15:55.831Z,78.80
2023-04-28T02:18:22.817Z,80.40
2023-04-28T02:20:49.885Z,81.80
2023-04-28T02:23:17.912Z,82.50
2023-04-28T02:25:44.858Z,82.60
2023-04-28T02:28:14.150Z,83.50
2023-04-28T02:30:41.097Z,84.40
2023-04-28T02:33:08.066Z,85.50
2023-04-28T02:35:35.040Z,86.10
2023-04-28T02:38:02.027Z,86.90
2023-04-28T02:40:28.971Z,87.40
2023-04-28T02:42:56.029Z,88.10
2023-04-28T02:45:23.052Z,89.40
2023-04-28T02:47:51.023Z,88.70
2023-04-28T02:50:18.372Z,89.00
2023-04-28T02:52:47.688Z,89.60
2023-04-28T02:55:23.775Z,90.00
2023-04-28T02:57:51.839Z,90.10
2023-04-28T03:00:19.338Z,90.30
2023-04-28T03:02:48.766Z,90.60
2023-04-28T03:05:16.622Z,90.80
2023-04-28T03:07:43.842Z,90.90
2023-04-28T03:10:10.935Z,91.00
2023-04-28T03:12:38.582Z,91.30
2023-04-28T03:15:08.912Z,91.40
2023-04-28T03:17:41.717Z,91.40
2023-04-28T03:20:10.060Z,91.60
2023-04-28T03:22:38.025Z,91.70
2023-04-28T03:25:05.933Z,91.70
2023-04-28T03:27:37.543Z,91.90
2023-04-28T03:30:07.103Z,92.00
2023-04-28T03:32:34.095Z,92.20
2023-04-28T03:35:01.378Z,92.60
2023-04-28T03:37:28.382Z,92.80
2023-04-28T03:39:55.444Z,93.00
2023-04-28T03:42:22.515Z,93.00
2023-04-28T03:45:10.033Z,93.20
2023-04-28T03:47:37.175Z,93.50
2023-04-28T03:50:04.601Z,93.60
2023-04-28T03:52:31.754Z,93.80
2023-04-28T03:54:58.772Z,93.80
2023-04-28T03:57:25.888Z,94.00
2023-04-28T03:59:52.877Z,94.10
2023-04-28T04:02:20.047Z,94.30
2023-04-28T04:04:47.489Z,94.30
2023-04-28T04:07:14.938Z,94.50
2023-04-28T04:09:42.028Z,94.70
2023-04-28T04:12:09.663Z,94.80
2023-04-28T04:14:37.262Z,94.80
2023-04-28T04:17:04.579Z,94.80
2023-04-28T04:19:32.396Z,94.90
2023-04-28T04:21:59.473Z,95.00
2023-04-28T04:24:26.582Z,95.10
2023-04-28T04:26:54.534Z,95.20
2023-04-28T04:29:29.109Z,95.30
2023-04-28T04:31:56.949Z,95.30
2023-04-28T04:34:24.113Z,95.20
2023-04-28T04:36:51.400Z,95.30
2023-04-28T04:39:18.508Z,95.30
2023-04-28T04:41:45.749Z,95.50
2023-04-28T04:44:31.643Z,95.60
2023-04-28T04:47:00.697Z,95.70
2023-04-28T04:49:29.200Z,95.80
2023-04-28T04:51:56.491Z,95.80
2023-04-28T04:54:24.760Z,95.90
2023-04-28T04:56:52.527Z,96.00
2023-04-28T04:59:30.733Z,96.00
2023-04-28T05:02:07.437Z,96.10
2023-04-28T05:04:34.533Z,96.10
2023-04-28T05:07:02.088Z,96.30
2023-04-28T05:09:30.675Z,96.40
2023-04-28T05:11:58.005Z,96.40
2023-04-28T05:14:25.113Z,96.40
2023-04-28T05:16:52.472Z,96.40
2023-04-28T05:19:25.192Z,96.50
2023-04-28T05:21:54.696Z,96.50
2023-04-28T05:24:25.676Z,96.50
2023-04-28T05:26:54.181Z,96.50
2023-04-28T05:29:22.016Z,96.60
2023-04-28T05:31:49.059Z,96.70
2023-04-28T05:34:16.728Z,96.70
2023-04-28T05:36:45.271Z,96.70
2023-04-28T05:39:13.324Z,96.80
2023-04-28T05:41:42.233Z,96.90
2023-04-28T05:44:11.230Z,96.80
2023-04-28T05:46:38.542Z,96.90
2023-04-28T05:49:06.470Z,96.90
2023-04-28T05:51:37.972Z,96.90
2023-04-28T05:54:05.275Z,97.10
2023-04-28T05:56:38.246Z,97.10
2023-04-28T05:59:05.498Z,97.10
2023-04-28T06:01:32.866Z,97.20
2023-04-28T06:04:00.146Z,97.20
2023-04-28T06:06:27.939Z,97.20
2023-04-28T06:08:55.031Z,97.20
2023-04-28T06:11:22.649Z,97.30
2023-04-28T06:13:51.294Z,97.30
2023-04-28T06:16:19.286Z,97.30
2023-04-28T06:18:49.616Z,97.30
2023-04-28T06:21:17.285Z,97.30
2023-04-28T06:23:44.259Z,97.30
2023-04-28T06:26:11.328Z,97.50
2023-04-28T06:28:39.827Z,97.50
2023-04-28T06:31:08.605Z,97.50
2023-04-28T06:33:35.807Z,97.60
2023-04-28T06:36:03.573Z,97.60
2023-04-28T06:38:30.601Z,97.60
2023-04-28T06:40:57.722Z,97.60
2023-04-28T06:43:24.813Z,97.60
2023-04-28T06:46:06.828Z,97.60
2023-04-28T06:48:35.026Z,97.60
2023-04-28T06:51:02.258Z,97.60
2023-04-28T06:53:29.151Z,97.70
2023-04-28T06:55:56.617Z,97.70
2023-04-28T06:58:23.707Z,97.80
2023-04-28T07:00:50.870Z,97.80
2023-04-28T07:03:18.048Z,97.90
2023-04-28T07:05:45.193Z,97.80
2023-04-28T07:08:12.183Z,97.90
2023-04-28T07:10:39.794Z,98.00
2023-04-28T07:13:07.205Z,98.00
2023-04-28T07:15:34.820Z,97.90
2023-04-28T07:18:03.285Z,97.90
2023-04-28T07:20:30.420Z,98.10
2023-04-28T07:22:57.382Z,98.10
2023-04-28T07:25:24.418Z,98.30
2023-04-28T07:27:51.595Z,98.40
2023-04-28T07:30:27.162Z,98.30
2023-04-28T07:32:54.990Z,98.50
2023-04-28T07:35:22.447Z,98.40
2023-04-28T07:37:49.525Z,98.30
2023-04-28T07:40:17.036Z,98.50
2023-04-28T07:42:44.225Z,98.50
2023-04-28T07:45:12.055Z,98.50
2023-04-28T07:47:39.037Z,98.50
2023-04-28T07:50:07.459Z,98.50
2023-04-28T07:52:34.909Z,98.30
2023-04-28T07:55:05.415Z,98.50
2023-04-28T07:57:35.900Z,98.50
2023-04-28T08:00:06.696Z,98.50
2023-04-28T08:02:38.933Z,98.70
2023-04-28T08:05:08.101Z,98.70
2023-04-28T08:07:35.580Z,98.70
2023-04-28T08:10:02.938Z,98.60
2023-04-28T08:12:30.326Z,98.60
2023-04-28T08:14:57.492Z,98.50
2023-04-28T08:17:24.694Z,98.60
2023-04-28T08:19:51.725Z,98.70
2023-04-28T08:22:18.877Z,98.70
2023-04-28T08:24:46.364Z,98.60
2023-04-28T08:27:13.555Z,98.50
2023-04-28T08:29:40.486Z,98.50
2023-04-28T08:32:07.414Z,98.70
2023-04-28T08:34:34.758Z,98.80
2023-04-28T08:37:02.024Z,98.80
2023-04-28T08:39:29.351Z,98.70
2023-04-28T08:49:44.910Z,98.90
2023-04-28T08:52:31.554Z,98.90
2023-04-28T08:55:10.087Z,98.90
2023-04-28T09:00:27.398Z,99.00
2023-04-28T09:02:58.615Z,99.00
2023-04-28T09:05:27.424Z,99.20
2023-04-28T09:07:55.783Z,99.40
2023-04-28T09:10:24.793Z,99.00
2023-04-28T09:12:56.847Z,99.10
2023-04-28T09:15:34.139Z,98.90
2023-04-28T09:18:03.409Z,98.70
2023-04-28T09:20:32.546Z,98.80
2023-04-28T09:23:19.688Z,99.00
2023-04-28T09:26:07.813Z,99.10
2023-04-28T09:28:36.676Z,98.70
2023-04-28T09:31:04.288Z,98.80
2023-04-28T09:33:32.380Z,99.00
2023-04-28T09:36:00.157Z,98.90
2023-04-28T09:38:27.481Z,99.00
2023-04-28T09:41:01.602Z,99.20
2023-04-28T09:43:39.305Z,99.10
2023-04-28T09:46:06.531Z,99.10
2023-04-28T09:48:39.022Z,99.20
2023-04-28T09:51:07.892Z,99.10
2023-04-28T09:53:35.846Z,99.10
2023-04-28T09:56:05.488Z,99.50
2023-04-28T09:58:35.311Z,99.50
2023-04-28T10:01:03.254Z,99.50
2023-04-28T10:03:31.933Z,99.40
2023-04-28T10:05:59.710Z,99.30
2023-04-28T10:08:27.989Z,99.10
2023-04-28T10:10:57.026Z,98.60
2023-04-28T10:13:24.788Z,98.40
2023-04-28T10:15:55.545Z,98.50
2023-04-28T10:18:26.016Z,98.70
2023-04-28T10:21:03.865Z,98.80
2023-04-28T10:23:33.972Z,98.80
2023-04-28T10:26:01.023Z,98.80
2023-04-28T10:28:28.180Z,98.70
2023-04-28T10:31:12.196Z,98.90
2023-04-28T10:33:40.440Z,99.00
2023-04-28T10:36:08.486Z,98.90
2023-04-28T10:38:36.658Z,99.10
2023-04-28T10:41:04.515Z,99.20
2023-04-28T10:43:39.363Z,99.40
2023-04-28T10:46:08.603Z,99.70
2023-04-28T10:48:38.584Z,99.90
2023-04-28T10:51:05.553Z,99.60
2023-04-28T10:53:45.166Z,99.00
2023-04-28T10:56:18.679Z,98.70
2023-04-28T10:58:50.696Z,99.00
2023-04-28T11:01:28.387Z,98.80
2023-04-28T11:04:01.337Z,98.80
2023-04-28T11:06:34.522Z,98.70
2023-04-28T11:09:33.701Z,98.20
2023-04-28T11:12:00.647Z,98.00
2023-04-28T11:14:36.205Z,97.80
2023-04-28T11:17:18.746Z,97.70
2023-04-28T11:19:48.719Z,97.50
2023-04-28T11:22:18.586Z,97.90
2023-04-28T11:25:05.884Z,98.00
2023-04-28T11:27:34.584Z,98.30
2023-04-28T11:30:01.992Z,98.20
2023-04-28T11:32:35.816Z,98.00
2023-04-28T11:35:04.735Z,98.00
2023-04-28T11:37:31.925Z,97.90
2023-04-28T11:39:58.859Z,97.80
2023-04-28T11:42:27.846Z,97.80
2023-04-28T11:44:55.154Z,97.70
2023-04-28T11:47:35.008Z,97.60
2023-04-28T11:50:03.344Z,97.70
2023-04-28T11:52:30.648Z,97.90
2023-04-28T11:55:02.747Z,97.40
2023-04-28T11:57:30.972Z,97.10
2023-04-28T12:00:22.970Z,96.60
2023-04-28T12:02:52.504Z,96.60
2023-04-28T12:05:31.922Z,96.30
2023-04-28T12:08:17.044Z,95.20
2023-04-28T12:11:13.747Z,94.80
2023-04-28T12:13:58.005Z,95.00
2023-04-28T12:17:14.662Z,95.60
2023-04-28T12:20:25.602Z,93.80
2023-04-28T12:25:58.860Z,93.20
2023-04-28T12:28:44.885Z,93.30
2023-04-28T12:31:15.000Z,93.20
2023-04-28T12:33:41.956Z,93.30
2023-04-28T12:36:09.520Z,93.10
2023-04-28T12:38:48.120Z,92.60
2023-04-28T12:41:18.577Z,92.20
2023-04-28T12:43:46.284Z,92.40
2023-04-28T12:46:16.058Z,92.20
2023-04-28T12:48:44.103Z,91.80
2023-04-28T12:51:12.441Z,91.70
2023-04-28T12:53:40.554Z,91.60
2023-04-28T12:56:07.563Z,91.50
2023-04-28T12:58:35.920Z,91.60
2023-04-28T13:01:03.232Z,90.80
2023-04-28T13:03:30.331Z,90.60
2023-04-28T13:05:57.309Z,90.40
2023-04-28T13:08:24.219Z,90.30
2023-04-28T13:10:51.357Z,89.80
2023-04-28T13:13:18.215Z,90.00
2023-04-28T13:15:46.863Z,90.00
2023-04-28T13:18:14.002Z,88.90
2023-04-28T13:20:40.966Z,89.30
2023-04-28T13:23:08.844Z,89.40
2023-04-28T13:25:35.736Z,89.10
2023-04-28T13:28:02.814Z,86.50
2023-04-28T13:30:29.712Z,85.60
2023-04-28T13:32:57.460Z,83.60
2023-04-28T13:35:24.810Z,79.40
2023-04-28T13:37:55.995Z,76.90
2023-04-28T13:40:23.010Z,76.00
2023-04-28T13:42:49.976Z,74.90
2023-04-28T13:45:17.848Z,74.90
2023-04-28T13:47:45.243Z,73.80
2023-04-28T13:50:12.140Z,71.40
2023-04-28T13:52:39.053Z,68.60
2023-04-28T13:55:06.312Z,66.90
2023-04-28T13:57:34.191Z,65.30
2023-04-28T14:00:01.133Z,64.40
2023-04-28T14:02:34.443Z,62.90
2023-04-28T14:05:01.606Z,62.70
2023-04-28T14:07:28.757Z,61.50
2023-04-28T14:09:55.892Z,61.20
2023-04-28T14:12:25.836Z,60.40
2023-04-28T14:14:57.883Z,60.60
2023-04-28T14:17:27.345Z,60.80
2023-04-28T14:19:56.484Z,61.20
2023-04-28T14:22:25.245Z,61.90
2023-04-28T14:24:54.057Z,62.70
2023-04-28T14:27:22.805Z,63.50
2023-04-28T14:29:51.469Z,63.90
2023-04-28T14:32:21.795Z,64.30
2023-04-28T14:34:51.678Z,64.80
2023-04-28T14:37:20.376Z,65.40
2023-04-28T14:39:50.232Z,66.00
2023-04-28T14:42:21.309Z,66.20
2023-04-28T14:44:51.427Z,66.90
2023-04-28T14:47:19.957Z,67.70
2023-04-28T14:49:48.784Z,68.70
2023-04-28T14:52:15.784Z,68.60
2023-04-28T14:54:43.532Z,68.40
2023-04-28T14:57:11.132Z,66.10
2023-04-28T14:59:39.969Z,64.90
2023-04-28T15:02:09.587Z,64.40
2023-04-28T15:04:39.380Z,64.90
2023-04-28T15:07:10.073Z,64.40
2023-04-28T15:09:37.651Z,64.50
2023-04-28T15:12:06.403Z,64.60
2023-04-28T15:14:35.672Z,64.70
2023-04-28T15:17:04.523Z,64.80
2023-04-28T15:19:32.965Z,65.40
2023-04-28T15:22:00.790Z,65.80
2023-04-28T15:24:28.254Z,66.30
2023-04-28T15:26:56.840Z,66.60
2023-04-28T15:29:25.705Z,66.90
2023-04-28T15:31:54.244Z,67.40
2023-04-28T15:43:50.712Z,67.60
2023-04-28T15:46:23.327Z,67.80
2023-04-28T15:48:50.666Z,68.60
2023-04-28T15:51:19.283Z,67.50
2023-04-28T15:53:48.217Z,67.50
2023-04-28T15:56:21.727Z,67.70
2023-04-28T15:58:57.662Z,67.80
2023-04-28T16:01:25.553Z,67.90
2023-04-28T16:03:54.012Z,68.00
2023-04-28T16:06:22.899Z,67.60
2023-04-28T16:08:52.085Z,67.60
2023-04-28T16:11:27.392Z,67.70
2023-04-28T16:14:01.484Z,67.80
2023-04-28T16:16:34.406Z,67.90
2023-04-28T16:19:06.846Z,67.80
2023-04-28T16:21:36.358Z,67.80
2023-04-28T16:24:11.997Z,67.60
2023-04-28T16:26:40.459Z,67.20
2023-04-28T16:29:15.645Z,66.90
2023-04-28T16:31:48.540Z,66.70
2023-04-28T16:34:16.991Z,66.50
2023-04-28T16:36:51.915Z,66.70
2023-04-28T16:39:25.572Z,66.60
2023-04-28T16:41:56.140Z,66.90
2023-04-28T16:44:25.839Z,67.20
2023-04-28T16:46:55.662Z,67.10
2023-04-28T16:49:25.667Z,67.10
2023-04-28T16:52:05.151Z,67.20
2023-04-28T16:54:34.808Z,67.00
2023-04-28T16:57:08.899Z,67.10
2023-04-28T16:59:48.023Z,67.10
2023-04-28T17:02:17.373Z,67.10
2023-04-28T17:04:52.236Z,66.90
2023-04-28T17:07:21.297Z,66.70
2023-04-28T17:09:52.377Z,66.90
2023-04-28T17:12:25.748Z,67.30
2023-04-28T17:14:59.610Z,67.40
2023-04-28T17:17:37.871Z,67.20
2023-04-28T17:20:10.141Z,66.70
2023-04-28T17:23:05.438Z,66.40
2023-04-28T17:25:40.361Z,66.00
2023-04-28T17:28:09.009Z,65.90
2023-04-28T17:30:47.187Z,66.10
2023-04-28T17:33:17.457Z,66.10
2023-04-28T17:35:46.792Z,66.10
2023-04-28T17:38:21.428Z,66.10
2023-04-28T17:40:49.743Z,66.60
2023-04-28T17:43:21.579Z,66.80
2023-04-28T17:45:52.323Z,67.10
2023-04-28T17:48:22.999Z,67.30
2023-04-28T17:50:51.807Z,67.30
2023-04-28T17:53:20.704Z,67.60
2023-04-28T17:55:49.341Z,67.80
2023-04-28T17:58:17.190Z,68.10
2023-04-28T18:00:46.211Z,68.20
2023-04-28T18:03:22.038Z,68.30
2023-04-28T18:06:12.481Z,68.50
2023-04-28T18:08:50.048Z,68.70
2023-04-28T18:11:36.277Z,68.80
2023-04-28T18:14:23.453Z,69.20
2023-04-28T18:17:02.428Z,69.50
2023-04-28T18:19:35.203Z,69.80
2023-04-28T18:22:10.389Z,70.10
2023-04-28T18:24:46.957Z,70.20
2023-04-28T18:27:20.023Z,70.60
2023-04-28T18:30:03.148Z,70.90
2023-04-28T18:32:47.083Z,71.10
2023-04-28T18:35:55.612Z,71.40
2023-04-28T18:38:45.126Z,71.70
2023-04-28T18:41:27.334Z,72.00
2023-04-28T18:48:05.556Z,72.50
2023-04-28T18:50:44.346Z,72.80
2023-04-28T18:53:27.429Z,73.70
2023-04-28T18:56:05.222Z,73.20
2023-04-28T18:58:48.317Z,73.30
2023-04-28T19:01:25.160Z,73.20
2023-04-28T19:04:05.619Z,73.40
2023-04-28T19:10:57.334Z,73.90
2023-04-28T19:13:34.965Z,74.10
2023-04-28T19:16:10.952Z,74.60
2023-04-28T19:22:06.284Z,75.20
2023-04-28T19:24:36.197Z,75.50
2023-04-28T19:27:03.723Z,75.90
2023-04-28T19:29:30.761Z,76.20
2023-04-28T19:31:58.660Z,76.60
2023-04-28T19:34:25.883Z,76.80
2023-04-28T19:36:55.843Z,77.00
2023-04-28T19:39:22.786Z,76.80
2023-04-28T19:41:50.682Z,76.90
2023-04-28T19:44:18.076Z,77.10
2023-04-28T19:46:46.342Z,77.20
2023-04-28T19:49:13.417Z,77.30
2023-04-28T19:51:40.343Z,77.40
2023-04-28T19:54:07.545Z,77.40
2023-04-28T19:56:35.029Z,77.40
2023-04-28T19:59:03.021Z,77.30
2023-04-28T20:01:32.776Z,77.40
2023-04-28T20:04:00.579Z,77.60
2023-04-28T20:06:27.807Z,78.00
2023-04-28T20:08:55.192Z,78.40
2023-04-28T20:11:22.343Z,78.80
2023-04-28T20:13:49.508Z,79.00
2023-04-28T20:16:17.156Z,79.40
2023-04-28T20:18:44.025Z,79.60
2023-04-28T20:21:10.954Z,80.00
2023-04-28T20:23:37.931Z,80.40
2023-04-28T20:26:05.613Z,80.60
2023-04-28T20:28:32.536Z,81.10
2023-04-28T20:30:59.474Z,81.50
2023-04-28T20:33:26.405Z,81.50
2023-04-28T20:35:53.300Z,81.60
2023-04-28T20:38:20.328Z,81.70
2023-04-28T20:40:47.895Z,81.80
2023-04-28T20:43:15.244Z,82.00
2023-04-28T20:45:42.385Z,82.00
2023-04-28T20:48:09.320Z,82.10
2023-04-28T20:50:39.497Z,82.20
2023-04-28T20:53:06.599Z,82.20
2023-04-28T20:55:33.744Z,82.40
2023-04-28T20:58:01.048Z,82.60
2023-04-28T21:00:28.502Z,82.80
2023-04-28T21:02:55.922Z,83.10
2023-04-28T21:05:23.895Z,83.10
2023-04-28T21:07:50.867Z,83.20
2023-04-28T21:10:17.926Z,83.60
2023-04-28T21:12:45.582Z,83.70
2023-04-28T21:15:14.137Z,84.00
2023-04-28T21:17:41.166Z,84.20
2023-04-28T21:20:08.506Z,84.60
2023-04-28T21:22:35.780Z,84.60
2023-04-28T21:25:03.183Z,84.60
2023-04-28T21:27:30.080Z,84.80
2023-04-28T21:29:58.538Z,85.00
2023-04-28T21:32:26.709Z,85.10
2023-04-28T21:34:53.840Z,85.30
2023-04-28T21:37:23.057Z,85.40
2023-04-28T21:40:02.386Z,85.50
2023-04-28T21:42:49.985Z,85.60
2023-04-28T21:45:18.563Z,85.90
2023-04-28T21:47:45.920Z,86.00
2023-04-28T21:50:12.845Z,86.80
2023-04-28T21:52:44.092Z,86.20
2023-04-28T21:55:13.893Z,86.10
2023-04-28T21:57:44.062Z,86.30
2023-04-28T22:00:25.087Z,86.50
2023-04-28T22:03:05.926Z,86.60
2023-04-28T22:05:36.419Z,86.80
2023-04-28T22:08:12.569Z,87.00
2023-04-28T22:10:51.952Z,87.10
2023-04-28T22:13:29.308Z,87.30
2023-04-28T22:16:02.939Z,87.50
2023-04-28T22:18:36.337Z,87.60
2023-04-28T22:21:08.329Z,87.60
2023-04-28T22:23:39.840Z,87.70
2023-04-28T22:26:08.842Z,87.80
2023-04-28T22:28:38.186Z,88.00
2023-04-28T22:31:12.540Z,88.90
2023-04-28T22:33:47.333Z,88.40
2023-04-28T22:36:24.497Z,88.70
2023-04-28T22:39:01.396Z,88.60
2023-04-28T22:41:39.878Z,88.80
2023-04-28T22:44:15.181Z,89.00
2023-04-28T22:46:49.428Z,89.10
2023-04-28T22:49:26.353Z,90.00
2023-04-28T22:51:55.639Z,89.30
2023-04-28T22:54:40.718Z,89.50
2023-04-28T22:57:18.973Z,89.60
2023-04-28T22:59:51.894Z,89.60
2023-04-28T23:13:31.812Z,90.10
2023-04-28T23:16:10.390Z,90.20
2023-04-28T23:18:44.862Z,90.20
2023-04-28T23:21:24.214Z,90.30
2023-04-28T23:23:55.101Z,90.30
2023-04-28T23:26:45.543Z,90.40
2023-04-28T23:29:28.247Z,90.40
2023-04-28T23:32:03.330Z,90.50
2023-04-28T23:34:39.889Z,90.50
2023-04-28T23:37:16.489Z,90.60
2023-04-28T23:40:10.364Z,90.70
2023-04-28T23:42:45.222Z,90.60
2023-04-28T23:45:14.859Z,90.70
2023-04-28T23:47:50.669Z,90.70
2023-04-28T23:50:25.619Z,90.80
2023-04-28T23:52:57.710Z,90.80
